Flight ASX315X

  • Submitted By: Lukasz Przybylak
  • Departure Airport: Szczecin (EPSC)
  • Arrival Airport: Gdansk im. Lecha Walesy (EPGD)
  • Aircraft: KING AIR 350 (SP-DBL)
  • Flight Time: 01.02.13
  • Date Submitted: 09/08/2017
  • Status: Accepted
Flight Details
Gross Revenue:
(8 load / € 55.00 per unit
€ 440.00
Fuel Cost:
(206.838 fuel used @ 0.45 / unit)
€ 93.08

Additional Log Information:

View Log

[13:25] - COM1 - 123.92
[13:26] - COM1 - 122.80
[13:29] - COM1 - 123.92
[13:29] - COM2 - 123.92
[13:34] - COM1 - 134.92
[15:37] - COM1 - 122.80
[15:40] - CARENADO B350i King Air 5003
[15:40] - Flight ASX315X is ready to depart EPSC with a final destination of EPGD.
[15:40] - Boarding
[15:40] - Engine 1 Started
[15:41] - Navigation Lights ON 6AGL
[15:41] - Engine 2 Started
[15:41] - Beacon Light ON 6AGL
[15:41] - Taxi Lights ON 6AGL
[15:44] - Pushing Back from the gate
[15:44] - Parking Brake Released
[15:44] - Recognition Lights ON 6AGL
[15:44] - Wing Lights ON 6AGL
[15:46] - Taxiing to Runway
[15:47] - Flaps to position 1
[15:48] - Landing Lights ON 6AGL
[15:48] - Taxi Lights OFF 6AGL
[15:48] - Strobe Lights ON 6AGL
[15:48] - Flaps to position 0
[15:49] - Taking Off with 8 passengers on board
[15:49] - Take off at 132kts, with a pitch of 8deg and 1053lbs of fuel on board
[15:49] - Wind Heading 161 | Wind Speed 8kts | Temperature 16 deg C
[15:49] - METAR Departure: EPSC 081330Z 17012KT 130V190 CAVOK 16/12 Q1004

[15:49] - Climbing to TOC
[15:49] - Gear up at 810AGL
[15:49] - AutoPilot Engaged at 978AGL
[15:55] - Landing Lights OFF 7119AGL
[15:59] - TOC reached
[15:59] - Cruise started
[16:16] - TOD reached
[16:16] - Descending to destination
[16:23] - Landing Lights ON 8694AGL
[16:27] - Landing Shortly
[16:30] - Gear down at 2444AGL
[16:31] - Flaps to position 1 at 1939ft and 147kts
[16:32] - Flaps to position 2 at 1699ft and 143kts
[16:33] - AutoPilot Disengaged at 272AGL
[16:34] - Landed at -128fpm. With 638lbs of fuel onboard and a pitch angle of 0deg.
[16:34] - Wind Heading 211 | Wind Speed 12kts | Temperature 16 deg C
[16:34] - METAR Arrival: EPGD 081400Z 20010KT 9999 FEW023 BKN028 16/11 Q1006

[16:34] - Taxiing to Gate
[16:34] - Parking Brake Applied
[16:34] - Arrived safely at EPGD. We hope you enjoyed your flight!
[16:35] - Landing Lights OFF 3AGL
[16:35] - Taxi Lights ON 3AGL
[16:35] - Strobe Lights OFF 3AGL
[16:36] - Flaps to position 1
[16:36] - Flaps to position 0
[16:36] - Parking Brake Released
[16:36] - Taxiing to Gate
[16:41] - Parking Brake Applied
[16:41] - Arrived safely at EPGD. We hope you enjoyed your flight!
[16:41] - Taxi Lights OFF 3AGL
[16:41] - Wing Lights OFF 3AGL
[16:41] - Recognition Lights OFF 3AGL
[16:41] - Engine 1 Stopped
[16:41] - Engine 2 Stopped
[16:41] - Navigation Lights OFF 3AGL
[16:42] - Beacon Lights OFF 3AGL
[16:42] - CARENADO B350i King Air 5003
[16:42] - MaxSim Rate: 1x
[16:42] - SiouxAcars ver: 1.0.1.2

Route Map